Terminal Aerodrome Forecast
Issued by NWS

Home | Current Version | Previous Version | Text Only | Print | Product List | Glossary On
Versions: 1 2 3 4 5 6 7 8 9 10 11 12 13 14 15 16 17 18 19 20
000
FTUS41 KCAR 012018 AAF
TAFPQI
TAF AMD
KPQI 012018Z 0120/0218 14005KT P6SM -RA SCT002 OVC012
      TEMPO 0120/0122 1SM -RA BR OVC007
     FM012200 00000KT 1SM -RA BR OVC005
     FM021200 21006KT 2SM -RASN OVC015
     FM021500 23007KT 3SM -RA OVC020
     FM021700 26011KT P6SM OVC015=

USA.gov is the U.S. government's official web portal to all federal, state and local government web resources and services.